Date,TemperatureHighF,TemperatureAvgF,TemperatureLowF,DewpointHighF,DewpointAvgF,DewpointLowF,HumidityHigh,HumidityAvg,HumidityLow,PressureMaxIn,PressureMinIn,WindSpeedMaxMPH,WindSpeedAvgMPH,GustSpeedMaxMPH,PrecipitationSumIn
2013-1-1,19.6,3.3,-16.6,-10.7,-31.4,-49.4,25,17,16,29.12,28.85,10,2,10,0.00
2013-1-2,25.0,18.9,15.3,-3.9,-10.8,-16.2,35,26,17,28.94,28.79,11,4,11,0.00
2013-1-3,21.2,12.8,5.5,-15.7,-23.2,-29.8,20,18,15,29.09,28.91,9,3,9,0.00
2013-1-4,38.7,19.5,8.1,-2.3,-13.6,-24.3,35,23,14,28.97,28.85,9,1,9,0.00
2013-1-5,32.9,16.5,7.0,0.2,-14.2,-21.9,35,25,15,28.94,28.70,6,1,6,0.00
2013-1-6,32.2,15.2,4.3,-10.3,-19.5,-26.1,24,19,15,29.06,28.82,17,3,17,0.00
2013-1-7,43.2,28.1,18.7,-0.7,-10.6,-18.1,35,18,13,28.82,28.73,17,4,19,0.00
2013-1-8,38.7,25.2,14.9,1.9,-6.9,-14.1,40,26,14,28.82,28.59,17,3,17,0.00
2013-1-9,40.1,29.8,21.7,-6.3,-11.4,-16.4,22,16,13,29.18,28.88,10,3,10,0.00
2013-1-10,43.0,35.2,28.6,25.6,-3.6,-13.2,67,21,13,29.09,28.59,15,8,15,0.16
2013-1-11,41.9,38.3,35.4,36.5,28.9,18.1,81,69,44,28.59,28.26,12,6,12,0.04
2013-1-12,37.4,13.7,0.0,31.2,-18.6,-35.7,78,24,15,28.91,28.26,11,4,13,0.04
2013-1-13,14.2,2.5,-2.6,-23.8,-33.4,-37.6,16,16,16,29.06,28.91,6,2,8,0.00
2013-1-14,19.0,6.3,-2.2,-20.9,-29.9,-37.3,17,16,15,29.23,29.06,9,2,9,0.00
2013-1-15,32.9,14.9,3.2,-9.8,-22.5,-31.8,19,17,15,29.09,28.91,14,4,14,0.00
2013-1-16,37.0,24.3,7.3,11.2,-12.4,-28.5,40,20,14,29.06,28.53,9,2,9,0.00
2013-1-17,25.2,11.7,-0.6,-13.8,-25.0,-34.9,19,17,15,29.21,29.06,6,2,8,0.00
2013-1-18,45.3,28.3,15.4,7.6,-7.9,-22.7,43,22,12,29.12,28.59,12,4,13,0.00
2013-1-19,44.1,21.2,-0.9,13.7,-9.8,-35.2,46,27,13,29.09,28.56,18,4,19,0.20
2013-1-20,11.8,1.4,-5.4,-24.6,-33.8,-40.0,17,17,16,29.23,29.09,11,3,11,0.20
2013-1-21,-0.2,-8.4,-15.0,-35.7,-42.5,-48.0,16,16,16,29.18,29.09,8,3,11,0.00
2013-1-22,6.4,-4.6,-18.4,-30.2,-39.4,-50.9,16,16,16,29.21,29.06,8,1,10,0.00
2013-1-23,20.7,5.7,-8.0,-17.2,-30.2,-41.1,18,17,15,29.41,28.97,16,3,16,0.00
2013-1-24,12.2,1.2,-8.7,-24.3,-33.4,-41.7,17,17,17,29.47,28.97,15,6,16,0.00
2013-1-25,19.0,11.1,-2.2,-17.8,-26.1,-37.3,18,16,15,29.12,28.79,13,4,15,0.00
2013-1-26,23.2,10.9,-5.4,-15.2,-26.1,-40.0,17,16,15,29.15,28.94,11,4,11,0.00
2013-1-27,33.1,29.1,22.1,15.0,-2.2,-16.0,49,28,15,28.94,28.64,10,4,11,0.00
2013-1-28,36.7,33.4,30.6,27.2,17.5,8.0,77,53,31,28.73,28.50,11,3,11,0.12
2013-1-29,39.9,32.9,26.1,26.8,6.0,-14.2,75,40,10,28.61,28.41,10,2,12,0.04
2013-1-30,25.9,16.1,5.7,-13.8,-20.9,-29.7,19,17,15,28.61,28.53,13,4,15,0.04
2013-1-31,8.8,-3.0,-17.7,-28.2,-36.9,-49.3,17,17,17,29.15,28.61,15,4,15,0.00
2013-2-1,6.6,-1.9,-19.7,-29.4,-36.0,-50.9,17,17,17,29.15,28.88,13,2,14,0.00
2013-2-2,19.9,7.2,-2.7,-20.2,-29.3,-36.7,17,16,15,29.03,28.82,10,2,10,0.00
2013-2-3,21.7,10.3,-0.6,-18.9,-26.5,-35.8,18,16,15,28.91,28.82,8,1,8,0.00
2013-2-4,25.0,10.3,-1.8,-14.4,-26.7,-36.0,22,16,14,28.91,28.59,15,3,15,0.00
2013-2-5,33.6,20.2,1.8,4.5,-13.9,-33.1,37,22,15,28.91,28.50,10,2,13,0.00
2013-2-6,26.8,14.9,0.0,-7.9,-20.9,-34.5,28,18,16,28.94,28.76,8,3,8,0.00
2013-2-7,27.9,24.5,22.6,1.2,-9.2,-14.9,38,23,16,29.09,28.82,8,3,10,0.00
2013-2-8,27.7,21.0,11.1,-5.6,-15.1,-18.1,34,19,16,29.18,29.03,13,4,13,0.00
2013-2-9,31.6,28.3,24.4,8.7,-7.0,-14.9,41,21,15,29.03,28.76,18,9,23,0.00
2013-2-10,34.2,30.2,27.1,18.4,6.5,-5.0,52,37,23,28.76,28.20,12,4,12,0.00
2013-2-11,30.0,23.0,8.1,10.9,-9.0,-23.2,45,25,15,28.88,28.23,10,3,10,0.00
2013-2-12,38.8,22.0,7.7,-3.7,-10.5,-23.2,38,24,14,28.88,28.64,11,3,13,0.00
2013-2-13,47.5,26.3,15.1,-2.6,-6.1,-14.9,37,26,12,28.64,28.50,9,2,9,0.00
2013-2-14,34.3,22.6,3.9,7.4,-13.4,-31.9,42,21,15,29.03,28.64,9,1,9,0.00
2013-2-15,26.6,8.3,-4.2,-13.5,-27.9,-39.1,19,17,15,29.15,29.03,6,1,8,0.00
2013-2-16,31.8,8.0,-6.3,-10.6,-28.9,-40.8,18,16,14,29.09,28.91,5,1,6,0.00
2013-2-17,32.5,21.6,6.4,-10.0,-18.1,-30.2,19,16,15,28.94,28.47,17,8,20,0.00
2013-2-18,35.1,22.2,5.5,3.8,-15.1,-29.8,34,18,15,28.67,28.38,13,4,15,0.00
2013-2-19,13.5,2.4,-10.5,-23.2,-32.4,-43.2,17,17,17,29.18,28.67,13,4,13,0.00
2013-2-20,25.2,2.3,-17.7,-14.6,-32.9,-49.3,18,17,15,29.26,29.18,6,1,6,0.00
2013-2-21,23.5,13.4,-1.7,-14.9,-23.9,-35.8,18,16,15,29.26,28.94,12,4,12,0.00
2013-2-22,35.6,23.8,19.6,-2.6,-10.3,-17.5,35,22,14,28.94,28.70,10,3,10,0.00
2013-2-23,43.9,23.9,6.8,-1.6,-9.6,-18.8,38,23,13,28.82,28.67,8,1,8,0.04
2013-2-24,52.7,19.8,-0.9,-0.3,-14.1,-25.5,35,22,11,28.94,28.79,5,0,6,0.00
2013-2-25,49.3,26.7,12.0,-2.9,-9.6,-20.4,34,21,11,28.94,28.88,6,0,6,0.00
2013-2-26,39.6,24.2,10.6,-2.8,-12.6,-20.0,33,19,13,28.91,28.73,8,2,8,0.00
2013-2-27,46.6,31.8,21.9,-1.5,-9.1,-14.7,33,17,12,28.88,28.73,10,3,10,0.00
2013-2-28,34.9,27.2,18.3,-1.8,-12.9,-18.1,32,16,15,29.06,28.88,8,2,8,0.00
2013-3-1,34.9,22.9,8.4,-8.1,-15.8,-25.5,19,17,15,29.18,29.06,8,2,8,0.00
2013-3-2,46.2,19.9,-0.9,-3.6,-18.3,-33.2,34,17,12,29.18,29.00,6,1,6,0.00
2013-3-3,33.8,26.2,18.3,-8.9,-14.5,-21.6,17,15,15,29.00,28.79,12,5,14,0.00
2013-3-4,27.5,24.8,22.5,-1.7,-11.6,-15.4,32,20,16,28.88,28.76,13,5,13,0.00
2013-3-5,38.7,26.0,18.3,-0.7,-7.6,-16.2,34,23,14,29.15,28.82,8,3,8,0.00
2013-3-6,37.4,22.7,5.2,-7.4,-14.8,-23.7,25,18,14,29.23,29.15,6,1,6,0.00
2013-3-7,35.8,19.2,-1.8,-4.6,-17.2,-29.8,30,19,14,29.21,29.09,12,4,12,0.00
2013-3-8,45.9,30.0,17.4,-3.9,-11.0,-18.1,28,16,12,29.15,28.91,11,5,11,0.12
2013-3-9,38.1,36.1,32.9,21.9,15.8,-9.5,57,44,15,28.91,28.56,10,4,12,0.63
2013-3-10,36.3,32.6,27.3,25.2,-1.7,-13.2,67,26,14,28.82,28.67,14,5,14,0.63
2013-3-11,41.0,27.6,17.1,-6.1,-12.4,-17.8,33,16,13,28.76,28.61,10,3,14,0.04
2013-3-12,36.9,24.9,16.5,-7.3,-14.5,-20.8,30,17,14,29.03,28.70,16,3,16,0.04
2013-3-13,44.1,24.1,3.7,-3.9,-14.0,-23.5,26,18,13,29.21,29.03,10,2,10,0.00
2013-3-14,55.6,33.0,23.0,0.7,-6.7,-15.3,34,19,10,29.06,28.85,11,3,11,0.04
2013-3-15,34.9,30.0,22.8,10.6,2.0,-6.6,40,30,17,28.85,28.70,14,3,14,0.08
2013-3-16,34.9,21.1,5.4,-0.1,-14.4,-31.1,36,20,15,29.09,28.76,13,3,13,0.00
2013-3-17,28.6,16.3,0.7,-12.2,-22.0,-35.0,17,16,15,29.12,28.70,19,6,19,0.00
2013-3-18,32.0,22.7,8.1,12.3,-11.0,-27.7,46,23,15,28.70,28.47,21,7,21,0.00
2013-3-19,29.8,13.1,1.2,-12.5,-23.9,-33.4,18,17,15,29.03,28.67,15,4,15,0.00
2013-3-20,30.0,11.6,-1.8,-12.2,-25.3,-36.3,18,17,15,29.06,28.97,15,3,15,0.00
2013-3-21,41.4,18.1,-4.4,-6.4,-20.8,-39.1,18,16,13,28.97,28.88,8,1,8,0.00
2013-3-22,50.9,22.5,-1.8,-2.2,-17.8,-36.1,19,16,11,28.94,28.88,7,0,7,0.00
2013-3-23,52.5,28.1,9.1,0.4,-10.4,-20.0,38,19,11,29.00,28.91,6,1,6,0.00
2013-3-24,43.7,29.5,24.3,3.0,-8.3,-14.9,34,19,13,28.94,28.85,13,2,13,0.00
2013-3-25,46.8,31.3,20.5,-3.3,-11.0,-17.5,20,15,12,29.06,28.91,10,3,10,0.00
2013-3-26,54.3,31.8,18.7,-0.3,-10.4,-18.0,22,16,11,29.15,29.06,8,1,8,0.00
2013-3-27,55.4,32.0,12.0,0.1,-8.5,-18.8,36,18,10,29.18,29.15,6,1,8,0.00
2013-3-28,52.0,34.1,16.2,-0.7,-8.1,-18.1,34,16,11,29.18,29.12,11,3,11,0.00
2013-3-29,54.5,39.2,31.5,-0.1,-6.7,-11.0,15,14,10,29.12,28.91,13,4,13,0.00
2013-3-30,63.0,45.4,32.0,20.9,5.3,-10.1,42,23,7,28.91,28.73,15,3,15,0.20
2013-3-31,44.6,33.7,19.8,21.9,-0.5,-20.4,60,26,13,28.97,28.67,17,4,17,0.00
2013-4-1,39.9,25.1,13.3,-6.1,-14.2,-22.0,28,17,13,29.12,28.97,12,3,12,0.00
2013-4-2,43.9,26.3,12.6,-4.2,-10.2,-18.1,37,21,13,29.18,29.09,11,2,11,0.00
2013-4-3,48.7,33.6,15.6,-2.2,-6.7,-18.1,36,19,11,29.21,28.88,26,8,26,0.00
2013-4-4,54.5,42.2,25.5,3.0,-4.9,-13.8,24,13,10,29.03,28.85,17,4,19,0.00
2013-4-5,44.4,32.3,21.2,12.2,-2.5,-14.7,40,23,13,29.09,28.73,17,4,17,0.00
2013-4-6,52.7,40.6,35.6,20.1,1.5,-7.5,39,21,11,28.73,28.41,19,6,19,0.00
2013-4-7,52.0,41.0,32.9,21.6,2.3,-7.7,44,21,11,28.79,28.64,12,3,12,0.00
2013-4-8,46.0,42.0,38.8,34.5,17.8,-10.6,77,42,13,28.91,28.56,11,3,11,0.00
2013-4-9,44.4,37.5,32.5,9.5,-3.5,-9.4,30,17,13,29.03,28.85,20,6,20,0.00
2013-4-10,38.8,34.5,30.4,6.6,-6.1,-10.3,34,17,14,29.03,28.76,17,6,17,0.00
2013-4-11,36.7,32.7,28.6,12.3,3.0,-10.0,42,30,15,28.79,28.56,16,6,16,0.71
2013-4-12,47.3,32.6,26.4,8.5,-0.0,-9.5,41,27,12,28.70,28.56,10,2,10,0.16
2013-4-13,48.6,34.1,25.3,9.0,-1.9,-14.0,42,24,12,28.82,28.70,8,1,8,0.12
2013-4-14,37.6,32.0,28.2,29.2,0.3,-13.1,74,28,15,28.79,28.38,19,5,19,0.31
2013-4-15,49.8,36.7,31.3,20.4,-5.3,-10.6,51,17,11,28.82,28.38,20,6,20,0.08
2013-4-16,54.1,39.2,29.5,0.1,-5.7,-12.5,18,15,10,29.15,28.82,12,2,12,0.00
2013-4-17,41.7,35.4,30.4,18.1,-2.4,-10.3,50,22,13,29.15,28.79,14,4,14,0.04
2013-4-18,34.5,32.9,31.5,18.1,12.6,6.3,54,43,33,28.82,28.41,12,2,12,0.00
2013-4-19,47.5,34.5,22.8,18.2,-1.3,-15.4,55,25,12,28.85,28.38,17,2,17,0.35
2013-4-20,59.4,34.2,12.7,0.9,-6.3,-16.8,37,19,9,29.15,28.85,11,1,11,0.08
2013-4-21,49.6,39.8,31.8,26.0,8.5,-10.3,49,30,12,29.15,28.85,22,7,22,0.16
2013-4-22,48.7,36.3,30.2,18.7,4.9,-8.9,49,30,11,29.09,28.97,14,2,14,0.00
2013-4-23,50.0,36.4,22.3,15.9,-0.8,-13.2,49,24,11,29.03,28.94,13,2,13,0.20
2013-4-24,58.8,37.2,21.9,17.2,4.2,-8.9,47,29,9,28.94,28.76,20,3,20,0.04
2013-4-25,59.0,42.6,27.3,16.7,0.8,-7.5,47,20,9,29.06,28.82,14,4,14,0.00
2013-4-26,79.7,58.8,44.6,12.3,3.0,-4.9,13,10,7,29.00,28.79,28,5,28,0.00
2013-4-27,81.5,60.7,35.4,16.3,6.4,-7.4,40,12,7,29.00,28.76,15,3,15,0.00
2013-4-28,88.9,64.3,49.3,31.6,9.6,-1.6,42,14,5,28.76,28.56,22,8,22,0.04
2013-4-29,80.4,61.1,41.5,28.9,10.9,-1.6,40,16,7,28.70,28.44,13,3,13,0.00
2013-4-30,77.5,63.8,52.5,17.0,8.3,-1.6,16,11,8,28.85,28.29,17,5,17,0.00
2013-5-1,53.1,40.4,32.9,15.1,-0.3,-7.7,42,20,11,29.32,28.85,11,2,11,0.12
2013-5-2,52.3,40.0,33.6,-0.6,-6.3,-9.1,15,13,11,29.38,29.26,10,4,10,0.00
2013-5-3,41.4,34.5,29.3,9.5,-3.7,-12.6,37,20,13,29.26,29.03,15,4,15,0.04
2013-5-4,47.3,38.2,32.5,15.1,8.5,-0.2,45,30,14,29.06,28.97,12,4,12,0.04
2013-5-5,72.9,50.1,37.0,19.6,9.0,-1.6,41,22,9,29.06,28.94,9,2,9,0.00
2013-5-6,85.5,62.1,43.2,26.1,12.9,-6.6,45,19,6,29.00,28.91,8,1,8,0.00
2013-5-7,85.8,66.4,47.7,30.6,13.4,3.0,42,16,6,28.94,28.85,13,2,13,0.00
2013-5-8,80.8,64.2,56.7,34.0,12.1,-0.4,42,15,7,28.91,28.85,11,2,11,0.04
2013-5-9,60.6,52.7,42.6,35.2,14.5,-4.9,45,23,12,29.00,28.85,17,4,17,0.00
2013-5-10,77.5,53.7,33.8,11.2,0.6,-9.1,15,11,8,29.00,28.76,10,3,10,0.00
2013-5-11,59.7,47.1,32.5,1.0,-3.4,-10.0,15,12,9,29.06,28.76,21,4,21,0.00
2013-5-12,67.8,46.3,25.3,8.7,-2.9,-14.0,21,13,9,29.09,28.97,11,2,11,0.00
2013-5-13,74.5,56.2,37.4,10.9,2.0,-7.5,14,11,8,28.97,28.53,24,6,24,0.00
2013-5-14,106.3,73.2,49.8,12.4,7.0,-2.8,14,8,2,28.61,28.38,21,4,21,0.00
2013-5-15,92.3,67.7,45.9,18.0,8.2,-2.7,30,10,4,28.82,28.59,14,2,14,0.00
2013-5-16,88.9,72.0,47.5,25.7,10.5,-0.6,39,10,5,28.82,28.73,13,3,13,0.00
2013-5-17,66.9,58.9,55.9,34.3,22.5,6.0,43,28,10,28.88,28.79,15,3,15,0.20
2013-5-18,83.8,66.5,56.3,52.3,27.0,8.6,73,29,6,28.85,28.67,17,5,17,1.54
2013-5-19,84.0,69.7,62.1,56.3,29.4,8.6,73,28,6,28.70,28.47,20,5,20,0.55
2013-5-20,76.6,65.9,60.4,59.3,29.2,7.5,82,33,8,28.50,28.41,17,5,17,0.12
2013-5-21,61.7,59.3,56.7,52.7,50.3,39.3,81,73,45,28.47,28.41,9,2,9,0.00
2013-5-22,52.2,49.9,46.0,19.3,10.1,4.0,29,20,16,28.88,28.82,14,4,14,0.35
2013-5-23,72.1,53.5,42.1,22.7,5.9,-4.6,41,16,9,29.21,28.88,15,3,15,0.00
2013-5-24,70.3,53.7,36.1,30.6,6.3,-8.4,41,16,9,29.23,29.06,14,4,14,0.24
2013-5-25,64.0,56.5,52.7,35.4,11.7,4.1,48,19,11,29.12,29.06,21,7,21,0.08
2013-5-26,59.7,55.7,52.3,6.6,4.1,-1.5,13,12,10,29.09,28.91,18,6,18,0.00
2013-5-27,68.4,57.9,53.1,31.5,14.4,3.7,40,20,10,28.94,28.73,13,3,13,0.00
2013-5-28,66.7,57.2,53.1,31.5,26.1,11.1,41,31,13,28.73,28.61,8,1,8,0.00
2013-5-29,79.7,66.7,53.8,44.4,23.6,8.6,64,23,7,28.70,28.53,17,5,17,0.00
2013-5-30,76.3,68.5,63.9,42.6,27.2,8.6,43,24,8,28.56,28.44,24,8,24,0.12
2013-5-31,79.5,67.4,58.3,40.5,17.3,5.8,42,18,7,28.47,28.41,25,7,25,0.20
2013-6-1,84.9,60.7,50.2,35.3,13.6,2.5,44,18,6,28.85,28.47,14,2,14,0.00
2013-6-2,78.1,57.6,42.4,20.1,8.8,-2.2,37,16,8,28.97,28.85,10,2,10,0.00
2013-6-3,79.3,60.1,43.0,35.4,13.4,-10.5,43,20,7,28.94,28.82,12,1,12,0.00
2013-6-4,62.4,57.7,53.6,32.5,12.4,-1.1,42,18,9,28.97,28.85,17,5,17,0.16
2013-6-5,70.7,56.9,52.0,33.3,24.5,6.7,39,29,9,28.94,28.88,10,3,10,0.24
2013-6-6,52.2,51.2,50.0,31.1,29.0,26.4,45,42,37,28.88,28.88,7,2,7,0.00
2013-6-7,71.8,60.5,51.6,28.4,12.9,6.0,37,17,9,0.00,0.00,6,1,6,0.00
2013-6-8,75.0,62.6,51.3,30.4,15.3,6.7,40,18,8,0.00,0.00,13,3,13,0.00
2013-6-9,69.1,60.3,56.8,40.7,29.4,11.1,47,32,13,0.00,0.00,13,3,13,0.39
2013-6-10,88.0,67.4,59.4,43.0,26.8,8.6,47,28,6,0.00,0.00,8,1,8,0.00
2013-6-11,84.4,67.8,57.4,54.8,32.5,1.7,72,34,6,0.00,0.00,8,1,8,0.00
2013-6-12,64.6,62.8,60.6,40.5,20.9,7.8,42,22,11,0.00,0.00,7,1,7,0.67
2013-6-13,90.0,69.6,53.1,37.6,19.1,7.8,40,18,5,29.18,0.00,8,1,8,84.17
2013-6-14,78.1,69.1,55.8,44.2,39.6,34.1,58,35,24,29.09,28.91,20,6,20,0.00
2013-6-15,79.2,70.5,61.9,61.1,50.9,39.9,84,52,25,28.97,28.88,15,2,15,0.00
2013-6-16,87.8,70.3,54.5,53.1,42.1,27.3,76,45,15,28.97,28.91,11,1,11,0.00
2013-6-17,82.6,73.6,59.0,58.8,39.6,34.1,80,32,20,29.06,28.91,11,2,11,0.00
2013-6-18,77.7,65.2,51.8,42.6,36.8,28.3,48,36,23,29.12,29.03,10,2,10,0.00
2013-6-19,84.7,73.5,60.8,45.2,40.6,35.3,54,33,19,29.06,29.00,15,5,15,0.00
2013-6-20,89.8,79.3,70.7,48.2,43.8,39.1,44,30,18,29.03,28.91,14,7,15,0.00
2013-6-21,81.7,72.4,61.7,64.8,52.2,41.9,93,53,26,29.12,28.76,23,4,23,2.13
2013-6-22,82.6,73.5,66.0,63.5,54.3,46.7,87,54,30,29.00,28.88,14,1,16,0.43
2013-6-23,82.2,73.4,64.9,68.5,54.8,43.0,98,57,26,28.97,28.70,19,4,19,3.15
2013-6-24,81.5,72.1,62.6,64.8,54.5,43.0,90,57,29,28.94,28.88,13,2,13,0.00
2013-6-25,86.5,75.3,65.5,64.5,54.6,46.0,79,52,27,28.88,28.79,15,4,15,0.00
2013-6-26,88.9,78.1,69.4,72.5,57.6,42.8,95,56,22,28.91,28.73,13,2,13,0.00
2013-6-27,87.3,76.2,66.7,63.4,46.1,34.3,81,41,16,28.97,28.85,14,2,14,0.00
2013-6-28,79.5,70.6,64.4,61.7,44.2,38.2,86,41,25,28.91,28.82,15,3,15,0.08
2013-6-29,76.5,68.5,61.0,60.0,46.4,30.9,86,51,23,29.03,28.79,11,2,11,0.00
2013-6-30,84.0,69.1,54.9,52.2,39.0,32.6,79,38,19,29.23,29.03,8,1,8,0.00
2013-7-1,86.2,72.1,58.3,59.4,41.6,32.7,79,38,18,29.26,29.18,7,1,7,0.00
2013-7-2,85.6,72.1,58.1,45.5,37.2,32.3,57,30,18,29.21,29.12,8,1,8,0.00
2013-7-3,86.4,71.5,58.1,55.9,40.0,30.4,82,37,16,29.12,29.00,8,1,8,0.00
2013-7-4,88.3,75.8,63.9,47.2,40.1,33.6,53,30,15,29.03,28.94,16,5,16,0.00
2013-7-5,87.8,78.7,70.0,45.3,40.3,33.8,33,26,18,28.94,28.91,20,8,20,0.00
2013-7-6,84.9,78.4,72.0,53.5,46.0,42.2,39,32,28,28.94,28.88,13,5,13,0.00
2013-7-7,90.7,80.0,68.7,57.7,49.8,44.8,67,36,22,29.00,28.88,12,3,12,0.00
2013-7-8,88.7,74.4,63.9,62.6,54.6,41.8,88,56,20,29.12,28.97,7,1,7,0.00
2013-7-9,85.8,76.1,67.8,67.4,54.0,45.1,91,49,29,29.03,28.79,14,3,14,0.59
2013-7-10,70.7,66.8,62.8,50.2,46.1,41.6,51,47,42,29.06,29.00,9,2,9,0.00
2013-7-12,88.5,81.1,69.3,44.2,40.7,38.1,35,24,19,29.03,28.97,20,10,20,0.00
2013-7-13,77.0,73.3,68.4,60.3,47.1,38.8,75,40,27,29.12,28.97,15,6,15,1.97
2013-7-14,84.7,74.9,69.6,52.4,48.2,41.5,48,40,26,29.23,29.09,13,5,13,0.00
2013-7-15,86.9,77.7,66.2,60.7,50.0,40.3,76,41,20,29.32,29.23,13,3,13,0.00
2013-7-16,91.8,82.0,73.2,65.4,53.5,42.1,76,41,18,29.32,29.21,13,3,13,0.00
2013-7-17,92.7,82.1,71.2,60.6,51.5,42.0,67,38,19,29.32,29.21,9,2,10,0.00
2013-7-18,92.8,83.6,74.8,62.7,50.7,42.0,62,35,18,29.21,28.85,19,5,19,0.00
2013-7-19,86.0,77.6,64.2,62.9,46.7,36.6,70,36,20,29.03,28.82,13,2,13,0.00
2013-7-20,81.1,70.0,61.3,63.6,46.6,35.8,87,49,21,29.06,28.94,8,1,8,0.04
2013-7-21,82.0,70.1,58.8,60.7,46.7,35.4,73,45,28,29.03,28.85,11,3,11,0.08
2013-7-22,86.9,74.3,63.9,61.8,49.6,34.9,77,46,20,28.94,28.73,13,4,13,0.00
2013-7-23,78.1,67.4,57.6,51.9,39.1,32.7,74,38,21,29.15,28.94,9,1,9,0.00
2013-7-24,81.3,67.6,56.7,50.7,40.3,33.2,65,39,20,29.12,29.03,9,1,9,0.00
2013-7-25,81.5,71.3,60.6,55.0,45.3,38.7,71,41,24,29.06,28.97,10,1,10,0.00
2013-7-28,74.5,65.1,49.8,40.6,35.4,32.2,69,35,24,29.12,28.97,10,2,10,0.00
2013-7-30,71.4,66.9,61.7,62.5,54.9,47.1,93,67,43,29.12,0.00,6,1,6,0.16
2013-7-31,80.1,66.8,57.2,66.1,48.6,32.0,90,59,21,29.12,29.06,10,1,10,0.00
2013-8-1,82.0,67.0,51.8,57.6,42.0,34.1,81,46,20,29.06,28.91,8,1,8,0.00
2013-8-2,78.1,66.1,54.9,55.6,41.4,31.8,84,46,20,29.09,28.91,8,1,8,0.00
2013-8-3,79.3,65.3,52.0,60.7,39.2,29.9,86,45,20,29.26,29.09,8,1,8,0.00
2013-8-4,76.6,63.9,51.3,49.0,38.8,32.4,71,42,22,29.26,29.03,9,2,9,0.00
2013-8-5,82.9,68.9,61.2,64.3,52.3,42.0,97,60,29,29.06,28.88,14,2,14,0.51
2013-8-6,84.6,67.7,55.6,59.7,49.7,43.4,90,58,26,28.91,28.79,11,2,11,0.51
2013-8-8,76.3,67.0,54.9,56.7,45.4,36.8,83,50,26,29.09,29.00,8,1,8,0.51
2013-8-9,77.0,65.3,54.9,60.7,42.6,31.7,85,50,21,29.18,29.03,10,1,10,0.51
2013-8-10,77.0,65.7,55.0,51.1,40.4,32.3,75,42,21,29.23,29.12,6,0,6,0.51
2013-8-11,82.0,69.5,61.5,54.5,46.6,38.4,71,46,22,29.12,29.06,10,0,10,0.51
2013-8-12,80.4,68.1,57.6,61.5,44.5,32.6,90,50,20,29.12,29.03,9,1,9,0.51
2013-8-13,78.3,64.9,55.2,56.3,39.0,28.1,81,44,18,29.23,29.12,9,1,9,0.51
2013-8-14,79.3,64.3,50.9,56.1,39.5,30.7,81,45,20,29.21,29.15,6,1,8,0.00
2013-8-15,80.6,67.0,54.0,54.3,41.6,34.4,75,44,21,29.18,29.12,12,1,12,0.00
2013-8-16,80.1,67.0,55.4,60.0,43.7,33.2,83,48,21,29.26,29.15,14,1,14,0.00
2013-8-17,81.5,68.0,55.8,54.4,42.6,35.2,82,45,21,29.21,29.15,15,3,15,0.00
2013-8-18,82.0,70.0,57.0,49.2,40.5,34.8,68,37,20,29.15,29.06,16,4,16,0.00
2013-8-19,86.7,75.0,66.4,53.2,47.6,40.7,49,39,28,29.09,28.97,11,4,11,0.00
2013-8-20,88.3,77.5,68.5,65.9,55.5,49.0,75,49,28,28.97,28.94,13,4,13,0.00
2013-8-21,89.2,77.4,69.3,68.5,57.5,40.7,89,54,28,29.09,28.88,10,1,10,0.00
2013-8-22,75.4,68.9,65.3,41.3,36.4,29.6,36,31,21,29.18,29.06,9,2,9,0.00
2013-8-23,75.4,75.4,75.4,32.8,32.8,32.8,21,21,21,29.18,29.18,0,0,7,0.00
2013-8-24,75.4,75.4,75.4,32.8,32.8,32.8,21,21,21,29.18,29.18,0,0,7,0.00
2013-8-25,75.4,75.4,75.4,32.8,32.8,32.8,21,21,21,29.18,29.18,0,0,7,0.00
2013-8-26,75.4,75.4,75.4,32.8,32.8,32.8,21,21,21,29.18,29.18,0,0,7,0.00
2013-8-27,75.4,75.4,75.4,32.8,32.8,32.8,21,21,21,29.18,29.18,0,0,7,0.00
2013-8-28,89.1,79.4,68.7,72.0,55.5,32.8,88,47,21,29.18,29.03,8,1,8,0.00
2013-8-29,91.6,80.9,73.4,71.1,56.8,43.0,86,48,20,29.09,28.94,12,2,12,0.00
2013-8-30,87.1,75.3,67.1,62.5,50.3,39.8,74,44,21,29.03,28.91,8,2,8,0.00
2013-8-31,87.8,72.2,60.8,66.2,51.7,43.0,92,53,22,29.00,28.82,21,2,21,0.20
2013-9-1,71.4,66.2,58.1,58.1,47.0,38.5,83,53,33,29.03,28.82,10,2,10,0.00
2013-9-2,69.8,58.5,51.8,49.0,40.2,32.8,78,53,27,29.12,29.03,6,1,6,0.00
2013-9-3,79.9,61.9,46.9,54.6,42.4,37.5,90,54,23,29.09,29.06,9,1,9,0.00
2013-9-4,88.0,70.7,57.6,62.1,46.9,38.8,84,49,19,29.21,29.06,6,1,6,0.00
2013-9-5,85.1,71.2,59.5,57.1,43.9,37.3,61,40,20,29.26,29.15,12,2,12,0.00
2013-9-6,91.2,78.5,70.0,64.8,51.8,40.5,83,46,18,29.15,28.94,18,5,18,0.00
2013-9-7,93.7,79.2,66.2,68.4,49.6,40.3,81,41,17,29.09,28.91,9,2,10,0.00
2013-9-8,74.7,67.4,63.1,49.9,42.0,35.9,53,40,33,29.12,28.91,13,2,13,0.00
2013-9-9,93.0,76.1,67.5,68.3,57.7,44.0,93,58,20,28.94,28.70,13,3,13,0.04
2013-9-10,84.2,71.3,63.5,62.8,51.4,35.6,81,54,19,29.06,28.85,10,1,10,0.00
2013-9-11,86.2,70.9,60.1,61.0,43.1,30.5,83,44,16,29.15,29.03,10,1,10,0.00
2013-9-12,75.0,63.0,51.4,49.5,33.7,25.3,74,36,19,29.26,29.12,11,1,11,0.00
2013-9-13,53.2,51.7,49.6,31.0,30.0,28.8,48,43,39,29.26,29.26,4,0,4,0.00
2013-9-16,67.8,57.7,41.0,42.4,30.1,26.0,82,38,23,29.38,29.23,9,3,9,0.71
2013-9-17,67.8,57.9,49.6,57.5,39.2,29.3,93,53,31,29.23,28.94,17,5,17,0.00
2013-9-18,77.0,67.9,59.5,68.3,60.7,52.2,98,80,42,28.94,28.73,13,5,13,0.08
2013-9-19,77.9,69.4,60.1,66.8,57.8,46.0,92,68,34,28.85,28.67,12,2,17,0.43
2013-9-20,65.7,57.0,47.8,51.6,41.8,29.2,78,60,28,28.94,28.82,12,2,12,0.04
2013-9-21,66.9,52.6,43.0,46.9,35.2,26.8,86,57,24,29.00,28.91,9,1,9,0.00
2013-9-22,75.4,60.3,46.8,40.8,37.3,32.9,75,46,23,28.94,28.88,17,5,17,0.00
2013-9-23,74.5,63.9,55.0,39.8,35.6,30.5,53,36,23,28.94,28.88,17,6,17,0.00
2013-9-24,77.0,63.1,51.3,45.4,37.3,31.8,76,41,21,28.97,28.94,10,3,10,0.00
2013-9-25,75.4,63.1,52.7,50.9,38.2,30.9,83,44,22,28.97,28.88,14,3,14,0.00
2013-9-26,81.1,68.5,57.6,44.7,39.2,35.7,55,36,21,28.94,28.85,22,7,22,0.00
2013-9-27,83.8,73.0,67.3,53.3,43.4,36.9,60,36,21,28.94,28.82,24,7,24,0.00
2013-9-28,72.7,60.5,46.0,60.7,41.1,29.2,85,51,32,28.94,28.64,21,5,21,0.16
2013-9-29,78.3,59.9,43.5,38.8,31.7,26.3,73,39,18,28.94,28.79,14,4,15,0.00
2013-9-30,79.9,66.7,57.0,36.3,32.4,26.3,39,28,20,28.79,28.64,15,6,17,0.00
2013-10-1,75.9,64.9,48.7,39.0,29.2,18.5,45,27,15,29.00,28.61,17,3,17,0.00
2013-10-2,77.0,58.0,41.4,42.4,28.7,23.3,70,37,15,29.03,28.88,15,3,15,0.20
2013-10-4,59.2,57.1,55.0,52.6,46.2,40.4,85,68,50,28.97,28.79,13,3,13,0.24
2013-10-5,60.6,53.5,40.3,56.3,40.7,27.0,93,65,30,28.82,28.73,10,2,10,0.04
2013-10-6,53.6,46.0,39.4,50.4,40.2,32.0,90,80,71,28.79,28.64,9,1,9,0.04
2013-10-7,69.8,52.7,39.7,51.9,33.0,22.3,89,55,19,28.97,28.76,8,1,8,0.00
2013-10-8,77.7,63.3,50.7,32.5,28.6,25.6,43,28,18,28.94,28.79,22,7,22,0.00
2013-10-9,77.4,66.2,58.3,34.3,31.5,27.3,36,28,20,29.03,28.88,13,6,17,0.00
2013-10-10,78.6,65.1,55.0,35.7,31.7,28.9,39,29,21,29.03,28.85,17,6,17,0.00
2013-10-11,73.2,65.4,57.4,50.7,37.3,32.9,63,37,24,28.85,28.61,26,8,26,0.04
2013-10-12,57.6,49.5,41.7,34.1,29.2,25.1,55,46,32,29.12,28.70,15,3,15,0.00
2013-10-13,62.8,46.5,33.1,38.5,24.7,16.6,77,47,21,29.35,29.12,8,0,8,0.00
2013-10-14,54.1,47.5,39.6,40.1,25.6,20.7,74,43,28,29.32,28.88,13,1,13,0.55
2013-10-15,53.4,49.7,45.3,50.9,45.8,40.1,91,86,74,28.88,28.59,15,3,15,0.91
2013-10-16,57.2,46.4,37.9,42.2,28.5,15.6,88,55,25,28.88,28.79,10,2,10,0.04
2013-10-17,54.3,44.9,38.1,39.1,28.6,21.4,82,54,30,28.79,28.70,10,1,10,0.31
2013-10-18,56.5,43.7,34.5,38.5,25.9,14.3,86,55,25,28.88,28.73,10,1,10,0.04
2013-10-19,47.3,37.6,30.2,35.6,27.2,19.0,79,67,38,28.76,28.61,9,1,9,0.12
2013-10-20,44.2,36.1,29.8,36.8,27.6,20.1,83,72,51,28.76,28.53,10,2,10,0.08
2013-10-21,42.3,33.8,26.1,19.3,10.1,7.1,50,37,29,28.82,28.76,12,2,12,0.00
2013-10-22,42.3,32.3,22.3,27.5,15.0,9.1,71,49,32,28.91,28.82,6,1,6,0.00
2013-10-23,38.7,33.7,31.5,22.4,14.1,5.7,61,46,31,28.94,28.85,11,1,11,0.00